createdAt,value
2018-08-03T00:00:22.737Z,5.53
2018-08-03T00:02:50.997Z,6.43
2018-08-03T00:05:19.293Z,7.60
2018-08-03T00:07:47.615Z,6.13
2018-08-03T00:10:15.888Z,6.20
2018-08-03T00:12:44.173Z,5.50
2018-08-03T00:15:12.443Z,6.50
2018-08-03T00:17:40.789Z,6.30
2018-08-03T00:20:11.065Z,5.60
2018-08-03T00:22:39.361Z,6.10
2018-08-03T00:25:08.384Z,5.63
2018-08-03T00:27:36.662Z,6.50
2018-08-03T00:30:07.577Z,5.57
2018-08-03T00:32:36.084Z,6.70
2018-08-03T00:35:04.520Z,6.30
2018-08-03T00:37:32.829Z,5.90
2018-08-03T00:40:01.113Z,6.97
2018-08-03T00:42:30.478Z,5.97
2018-08-03T00:44:58.819Z,5.90
2018-08-03T00:47:27.085Z,5.13
2018-08-03T00:49:55.385Z,6.93
2018-08-03T00:52:23.633Z,6.30
2018-08-03T00:54:51.905Z,6.50
2018-08-03T00:57:20.299Z,6.50
2018-08-03T00:59:48.605Z,6.83
2018-08-03T01:02:16.909Z,7.10
2018-08-03T01:04:45.212Z,6.23
2018-08-03T01:07:13.496Z,8.00
2018-08-03T01:09:41.793Z,6.23
2018-08-03T01:12:10.068Z,6.93
2018-08-03T01:14:38.376Z,5.70
2018-08-03T01:17:06.633Z,5.87
2018-08-03T01:19:34.904Z,6.60
2018-08-03T01:22:03.177Z,6.10
2018-08-03T01:24:31.514Z,6.20
2018-08-03T01:26:59.744Z,6.73
2018-08-03T01:29:28.029Z,5.97
2018-08-03T01:31:56.280Z,6.30
2018-08-03T01:34:24.555Z,6.70
2018-08-03T01:36:52.834Z,6.07
2018-08-03T01:39:21.117Z,6.60
2018-08-03T01:41:49.469Z,6.20
2018-08-03T01:44:17.762Z,5.80
2018-08-03T01:46:46.061Z,6.37
2018-08-03T01:49:14.343Z,6.70
2018-08-03T01:51:42.689Z,6.70
2018-08-03T01:54:10.949Z,6.07
2018-08-03T01:56:39.277Z,5.53
2018-08-03T01:59:07.580Z,6.23
2018-08-03T02:01:36.017Z,6.10
2018-08-03T02:04:04.309Z,7.10
2018-08-03T02:06:32.697Z,8.00
2018-08-03T02:09:00.949Z,6.80
2018-08-03T02:11:29.344Z,6.30
2018-08-03T02:13:57.593Z,6.70
2018-08-03T02:16:25.992Z,5.97
2018-08-03T02:18:54.349Z,6.80
2018-08-03T02:21:22.740Z,7.13
2018-08-03T02:23:51.009Z,7.83
2018-08-03T02:26:19.316Z,6.70
2018-08-03T02:28:47.589Z,7.17
2018-08-03T02:31:15.856Z,6.60
2018-08-03T02:33:44.232Z,6.67
2018-08-03T02:36:12.513Z,7.37
2018-08-03T02:38:40.813Z,6.20
2018-08-03T02:41:09.084Z,7.17
2018-08-03T02:43:37.430Z,7.07
2018-08-03T02:46:05.714Z,7.03
2018-08-03T02:48:34.000Z,5.93
2018-08-03T02:51:02.280Z,6.90
2018-08-03T02:53:30.596Z,7.07
2018-08-03T02:55:58.868Z,7.33
2018-08-03T02:58:27.309Z,7.10
2018-08-03T03:00:56.570Z,6.57
2018-08-03T03:03:24.876Z,8.53
2018-08-03T03:05:53.217Z,7.07
2018-08-03T03:08:21.530Z,7.53
2018-08-03T03:10:49.801Z,7.53
2018-08-03T03:13:18.089Z,7.13
2018-08-03T03:15:46.356Z,7.30
2018-08-03T03:18:14.642Z,6.87
2018-08-03T03:20:43.006Z,7.60
2018-08-03T03:23:13.341Z,7.67
2018-08-03T03:25:41.600Z,7.87
2018-08-03T03:28:09.958Z,7.70
2018-08-03T03:30:38.242Z,7.80
2018-08-03T03:33:06.484Z,7.33
2018-08-03T03:35:34.807Z,8.03
2018-08-03T03:38:03.101Z,8.50
2018-08-03T03:40:31.377Z,8.77
2018-08-03T03:42:59.656Z,8.17
2018-08-03T03:45:28.067Z,8.07
2018-08-03T03:47:56.316Z,7.83
2018-08-03T03:50:25.588Z,7.17
2018-08-03T03:52:53.842Z,8.10
2018-08-03T03:55:22.151Z,9.60
2018-08-03T03:57:50.427Z,8.00
2018-08-03T04:00:18.812Z,8.63
2018-08-03T04:02:47.065Z,9.03
2018-08-03T04:05:15.365Z,7.90
2018-08-03T04:07:43.857Z,8.23
2018-08-03T04:10:12.655Z,7.70
2018-08-03T04:12:41.318Z,7.80
2018-08-03T04:15:09.846Z,7.83
2018-08-03T04:17:38.116Z,8.00
2018-08-03T04:20:06.657Z,7.80
2018-08-03T04:22:35.171Z,7.60
2018-08-03T04:25:03.456Z,8.53
2018-08-03T04:27:31.741Z,7.60
2018-08-03T04:30:01.205Z,7.33
2018-08-03T04:32:29.489Z,8.40
2018-08-03T04:34:57.736Z,8.77
2018-08-03T04:37:26.042Z,8.70
2018-08-03T04:39:54.389Z,8.80
2018-08-03T04:42:22.767Z,7.43
2018-08-03T04:44:51.024Z,8.30
2018-08-03T04:47:19.345Z,8.17
2018-08-03T04:49:47.597Z,9.10
2018-08-03T04:52:15.882Z,8.60
2018-08-03T04:54:44.144Z,7.67
2018-08-03T04:57:12.448Z,9.50
2018-08-03T04:59:40.696Z,9.00
2018-08-03T05:02:09.600Z,8.27
2018-08-03T05:04:37.939Z,10.07
2018-08-03T05:07:06.190Z,9.90
2018-08-03T05:09:34.448Z,9.50
2018-08-03T05:12:06.073Z,9.63
2018-08-03T05:14:34.376Z,9.53
2018-08-03T05:17:02.833Z,9.53
2018-08-03T05:19:31.184Z,9.53
2018-08-03T05:21:59.437Z,9.63
2018-08-03T05:24:28.793Z,11.13
2018-08-03T05:26:57.141Z,10.20
2018-08-03T05:29:25.432Z,11.30
2018-08-03T05:31:53.693Z,9.40
2018-08-03T05:34:22.053Z,10.60
2018-08-03T05:36:50.350Z,9.60
2018-08-03T05:39:18.604Z,10.60
2018-08-03T05:41:46.965Z,10.60
2018-08-03T05:44:15.254Z,9.07
2018-08-03T05:46:43.549Z,8.67
2018-08-03T05:49:11.801Z,9.50
2018-08-03T05:51:40.119Z,10.67
2018-08-03T05:54:09.512Z,10.23
2018-08-03T05:56:37.802Z,9.70
2018-08-03T05:59:06.174Z,10.60
2018-08-03T06:01:34.515Z,8.77
2018-08-03T06:04:06.787Z,9.63
2018-08-03T06:06:35.077Z,8.07
2018-08-03T06:09:03.705Z,9.23
2018-08-03T06:11:31.977Z,8.90
2018-08-03T06:14:00.841Z,7.60
2018-08-03T06:16:30.142Z,8.10
2018-08-03T06:18:58.521Z,7.70
2018-08-03T06:21:26.861Z,7.70
2018-08-03T06:23:55.147Z,7.70
2018-08-03T06:26:23.433Z,6.53
2018-08-03T06:28:51.713Z,8.50
2018-08-03T06:31:20.082Z,7.50
2018-08-03T06:33:48.819Z,8.60
2018-08-03T06:36:17.133Z,7.40
2018-08-03T06:38:45.389Z,7.80
2018-08-03T06:41:13.981Z,8.00
2018-08-03T06:43:42.276Z,7.77
2018-08-03T06:46:10.754Z,7.10
2018-08-03T06:48:39.034Z,7.20
2018-08-03T06:51:07.329Z,6.87
2018-08-03T06:53:35.649Z,6.00
2018-08-03T06:56:05.020Z,5.27
2018-08-03T06:58:33.289Z,5.37
2018-08-03T07:01:01.588Z,5.20
2018-08-03T07:03:29.969Z,5.23
2018-08-03T07:05:58.259Z,5.40
2018-08-03T07:08:26.658Z,5.10
2018-08-03T07:10:54.901Z,5.13
2018-08-03T07:13:23.193Z,4.90
2018-08-03T07:15:51.473Z,4.73
2018-08-03T07:18:19.821Z,4.60
2018-08-03T07:20:48.187Z,5.97
2018-08-03T07:23:16.473Z,4.20
2018-08-03T07:25:44.756Z,5.33
2018-08-03T07:28:13.057Z,4.53
2018-08-03T07:30:41.489Z,3.80
2018-08-03T07:33:09.786Z,4.17
2018-08-03T07:35:38.102Z,4.47
2018-08-03T07:38:06.440Z,4.17
2018-08-03T07:40:34.729Z,3.83
2018-08-03T07:43:03.170Z,4.00
2018-08-03T07:45:31.577Z,4.43
2018-08-03T07:47:59.913Z,4.40
2018-08-03T07:50:28.235Z,4.30
2018-08-03T07:52:56.525Z,3.73
2018-08-03T07:55:24.877Z,4.13
2018-08-03T07:57:53.375Z,4.43
2018-08-03T08:00:22.725Z,4.30
2018-08-03T08:02:51.004Z,4.13
2018-08-03T08:05:19.281Z,4.57
2018-08-03T08:07:47.581Z,4.30
2018-08-03T08:10:15.836Z,4.10
2018-08-03T08:12:44.141Z,4.30
2018-08-03T08:15:12.440Z,3.67
2018-08-03T08:17:40.699Z,4.20
2018-08-03T08:20:08.974Z,3.53
2018-08-03T08:22:37.477Z,3.70
2018-08-03T08:25:05.792Z,3.60
2018-08-03T08:27:34.125Z,4.40
2018-08-03T08:30:02.396Z,4.53
2018-08-03T08:32:30.866Z,4.67
2018-08-03T08:34:59.137Z,4.40
2018-08-03T08:37:27.454Z,4.73
2018-08-03T08:39:55.808Z,4.73
2018-08-03T08:42:25.209Z,4.20
2018-08-03T08:44:53.524Z,4.67
2018-08-03T08:47:21.964Z,5.20
2018-08-03T08:49:50.254Z,4.83
2018-08-03T08:52:18.601Z,5.90
2018-08-03T08:54:46.914Z,5.30
2018-08-03T08:57:15.175Z,5.07
2018-08-03T08:59:43.504Z,4.60
2018-08-03T09:02:11.800Z,4.97
2018-08-03T09:04:40.099Z,4.97
2018-08-03T09:07:08.478Z,4.30
2018-08-03T09:09:36.767Z,4.67
2018-08-03T09:12:05.057Z,5.40
2018-08-03T09:14:33.401Z,5.10
2018-08-03T09:17:01.696Z,5.00
2018-08-03T09:19:30.002Z,5.47
2018-08-03T09:24:23.330Z,6.30
2018-08-03T09:26:51.621Z,6.47
2018-08-03T09:29:19.880Z,5.40
2018-08-03T09:31:48.219Z,6.20
2018-08-03T09:34:16.489Z,6.37
2018-08-03T09:36:44.781Z,6.13
2018-08-03T09:39:13.041Z,5.63
2018-08-03T09:41:41.468Z,5.30
2018-08-03T09:44:09.781Z,6.07
2018-08-03T09:46:38.108Z,5.10
2018-08-03T09:49:07.255Z,6.57
2018-08-03T09:51:35.554Z,5.90
2018-08-03T09:54:03.865Z,6.40
2018-08-03T09:56:32.216Z,5.63
2018-08-03T09:59:00.521Z,5.90
2018-08-03T10:01:28.801Z,6.40
2018-08-03T10:03:57.292Z,5.27
2018-08-03T10:06:25.624Z,6.00
2018-08-03T10:08:53.924Z,5.60
2018-08-03T10:11:22.198Z,6.07
2018-08-03T10:13:50.509Z,5.33
2018-08-03T10:16:18.948Z,5.80
2018-08-03T10:18:48.469Z,6.80
2018-08-03T10:21:17.764Z,7.50
2018-08-03T10:23:46.077Z,6.97
2018-08-03T10:26:14.381Z,7.93
2018-08-03T10:28:42.808Z,6.40
2018-08-03T10:31:11.088Z,8.50
2018-08-03T10:33:39.417Z,7.97
2018-08-03T10:36:07.738Z,8.63
2018-08-03T10:38:36.001Z,8.10
2018-08-03T10:41:04.334Z,8.20
2018-08-03T10:43:32.655Z,7.27
2018-08-03T10:46:01.980Z,7.47
2018-08-03T10:48:31.359Z,7.33
2018-08-03T10:51:00.066Z,7.20
2018-08-03T10:53:28.356Z,8.37
2018-08-03T10:55:56.665Z,8.77
2018-08-03T10:58:25.008Z,7.30
2018-08-03T11:00:53.260Z,7.73
2018-08-03T11:03:21.557Z,8.20
2018-08-03T11:05:50.978Z,7.77
2018-08-03T11:08:19.261Z,7.60
2018-08-03T11:10:47.568Z,8.63
2018-08-03T11:13:15.849Z,7.97
2018-08-03T11:15:45.180Z,8.10
2018-08-03T11:18:13.468Z,7.50
2018-08-03T11:20:41.769Z,9.57
2018-08-03T11:23:10.057Z,8.07
2018-08-03T11:25:38.362Z,8.43
2018-08-03T11:28:06.745Z,8.20
2018-08-03T11:30:35.037Z,8.00
2018-08-03T11:33:03.393Z,5.83
2018-08-03T11:40:23.146Z,5.90
2018-08-03T11:42:51.452Z,6.40
2018-08-03T11:45:19.745Z,5.20
2018-08-03T11:47:48.058Z,5.63
2018-08-03T11:50:16.340Z,4.70
2018-08-03T11:52:49.017Z,6.10
2018-08-03T11:55:17.365Z,6.27
2018-08-03T11:57:46.699Z,5.43
2018-08-03T12:00:18.329Z,6.00
2018-08-03T12:02:46.816Z,4.73
2018-08-03T12:05:15.096Z,5.33
2018-08-03T12:07:43.749Z,4.97
2018-08-03T12:10:12.027Z,4.23
2018-08-03T12:12:40.274Z,4.93
2018-08-03T12:15:08.577Z,4.73
2018-08-03T12:17:36.968Z,4.93
2018-08-03T12:20:05.307Z,4.67
2018-08-03T12:22:33.565Z,4.83
2018-08-03T12:25:01.849Z,6.80
2018-08-03T12:27:30.159Z,6.30
2018-08-03T12:29:58.461Z,5.77
2018-08-03T12:32:28.881Z,5.87
2018-08-03T12:34:58.297Z,5.27
2018-08-03T12:37:26.585Z,6.20
2018-08-03T12:39:54.885Z,5.17
2018-08-03T12:42:23.179Z,5.43
2018-08-03T12:44:51.502Z,5.40
2018-08-03T12:47:19.777Z,5.27
2018-08-03T12:49:49.034Z,4.83
2018-08-03T12:52:17.353Z,5.87
2018-08-03T12:54:45.634Z,5.67
2018-08-03T12:57:13.937Z,5.87
2018-08-03T12:59:42.299Z,5.23
2018-08-03T13:02:10.601Z,5.23
2018-08-03T13:04:38.940Z,6.10
2018-08-03T13:07:07.751Z,5.90
2018-08-03T13:09:36.070Z,6.37
2018-08-03T13:12:05.462Z,5.70
2018-08-03T13:14:33.748Z,5.50
2018-08-03T13:17:02.076Z,5.83
2018-08-03T13:19:30.400Z,5.10
2018-08-03T13:21:58.649Z,5.20
2018-08-03T13:24:26.966Z,5.50
2018-08-03T13:26:55.221Z,5.27
2018-08-03T13:29:23.579Z,5.40
2018-08-03T13:31:51.833Z,4.93
2018-08-03T13:34:20.154Z,6.13
2018-08-03T13:36:48.421Z,5.23
2018-08-03T13:39:16.704Z,4.10
2018-08-03T13:41:44.997Z,5.30
2018-08-03T13:44:13.301Z,5.30
2018-08-03T13:46:42.221Z,5.47
2018-08-03T13:49:10.485Z,4.87
2018-08-03T13:51:38.821Z,4.33
2018-08-03T13:54:07.121Z,5.27
2018-08-03T13:56:35.440Z,4.70
2018-08-03T13:59:03.837Z,4.00
2018-08-03T14:02:41.856Z,5.10
2018-08-03T14:05:11.918Z,4.27
2018-08-03T14:07:40.254Z,5.50
2018-08-03T14:10:09.897Z,4.37
2018-08-03T14:12:38.304Z,4.70
2018-08-03T14:15:07.348Z,4.67
2018-08-03T14:17:35.722Z,4.37
2018-08-03T14:20:04.338Z,4.17
2018-08-03T14:22:32.670Z,4.00
2018-08-03T14:25:00.953Z,4.20
2018-08-03T14:27:29.453Z,4.20
2018-08-03T14:29:57.733Z,4.57
2018-08-03T14:32:26.045Z,4.00
2018-08-03T14:34:54.417Z,4.53
2018-08-03T14:37:22.768Z,4.50
2018-08-03T14:39:51.133Z,4.47
2018-08-03T14:42:19.491Z,4.87
2018-08-03T14:44:47.825Z,4.70
2018-08-03T14:47:16.118Z,5.03
2018-08-03T14:49:44.405Z,4.30
2018-08-03T14:52:12.681Z,4.77
2018-08-03T14:54:40.952Z,3.70
2018-08-03T14:57:10.233Z,4.10
2018-08-03T14:59:38.533Z,4.67
2018-08-03T15:02:06.850Z,3.80
2018-08-03T15:04:35.178Z,4.37
2018-08-03T15:07:03.492Z,4.47
2018-08-03T15:09:31.777Z,4.33
2018-08-03T15:12:00.081Z,5.30
2018-08-03T15:14:28.359Z,4.97
2018-08-03T15:16:56.696Z,4.43
2018-08-03T15:19:24.985Z,4.60
2018-08-03T15:21:53.305Z,3.90
2018-08-03T15:24:21.709Z,3.90
2018-08-03T15:26:50.028Z,3.90
2018-08-03T15:29:18.325Z,4.43
2018-08-03T15:31:46.625Z,4.40
2018-08-03T15:34:14.938Z,3.73
2018-08-03T15:36:43.257Z,4.13
2018-08-03T15:39:11.849Z,3.93
2018-08-03T15:41:40.235Z,4.20
2018-08-03T15:44:08.515Z,3.60
2018-08-03T15:46:37.006Z,4.08
2018-08-03T15:49:05.608Z,3.87
2018-08-03T15:51:33.916Z,3.40
2018-08-03T15:54:02.353Z,3.30
2018-08-03T15:56:30.887Z,3.83
2018-08-03T15:58:59.393Z,4.30
2018-08-03T16:01:28.733Z,3.80
2018-08-03T16:03:57.051Z,3.10
2018-08-03T16:06:25.321Z,3.50
2018-08-03T16:08:53.653Z,3.30
2018-08-03T16:11:21.925Z,3.37
2018-08-03T16:13:50.309Z,3.20
2018-08-03T16:16:18.753Z,3.93
2018-08-03T16:18:47.045Z,2.80
2018-08-03T16:21:15.385Z,3.07
2018-08-03T16:23:43.649Z,3.13
2018-08-03T16:26:11.981Z,3.93
2018-08-03T16:28:40.309Z,3.00
2018-08-03T16:31:08.608Z,3.70
2018-08-03T16:33:36.933Z,3.30
2018-08-03T16:36:05.249Z,3.07
2018-08-03T16:38:33.523Z,3.40
2018-08-03T16:41:01.949Z,3.00
2018-08-03T16:43:30.238Z,2.90
2018-08-03T16:45:58.572Z,3.07
2018-08-03T16:48:26.995Z,3.73
2018-08-03T16:50:55.297Z,3.10
2018-08-03T16:53:23.581Z,3.20
2018-08-03T16:55:52.084Z,3.20
2018-08-03T16:58:20.356Z,2.97
2018-08-03T17:00:48.713Z,3.40
2018-08-03T17:03:17.022Z,3.63
2018-08-03T17:05:46.369Z,3.30
2018-08-03T17:08:14.702Z,4.00
2018-08-03T17:10:42.973Z,4.40
2018-08-03T17:13:11.373Z,4.30
2018-08-03T17:15:39.633Z,4.03
2018-08-03T17:18:08.069Z,4.63
2018-08-03T17:20:36.345Z,3.70
2018-08-03T17:23:04.653Z,5.47
2018-08-03T17:25:32.949Z,5.80
2018-08-03T17:28:01.327Z,5.20
2018-08-03T17:30:29.627Z,4.30
2018-08-03T17:32:57.925Z,4.90
2018-08-03T17:35:26.213Z,4.77
2018-08-03T17:37:54.537Z,4.93
2018-08-03T17:40:22.970Z,4.87
2018-08-03T17:42:52.397Z,5.00
2018-08-03T17:45:20.805Z,5.30
2018-08-03T17:47:49.130Z,5.50
2018-08-03T17:50:17.488Z,10.55
2018-08-03T17:52:45.933Z,10.50
2018-08-03T17:55:14.226Z,10.20
2018-08-03T17:57:42.493Z,8.03
2018-08-03T18:00:10.990Z,6.93
2018-08-03T18:02:39.389Z,7.00
2018-08-03T18:05:07.725Z,6.53
2018-08-03T18:07:37.056Z,4.97
2018-08-03T18:10:06.476Z,5.10
2018-08-03T18:12:34.764Z,4.90
2018-08-03T18:15:03.067Z,5.13
2018-08-03T18:17:31.332Z,5.60
2018-08-03T18:19:59.785Z,5.00
2018-08-03T18:22:28.058Z,5.07
2018-08-03T18:24:56.433Z,4.93
2018-08-03T18:27:24.797Z,4.30
2018-08-03T18:29:53.136Z,5.30
2018-08-03T18:32:21.476Z,5.37
2018-08-03T18:34:49.782Z,4.47
2018-08-03T18:37:18.093Z,4.73
2018-08-03T18:39:47.546Z,4.67
2018-08-03T18:42:15.885Z,5.20
2018-08-03T18:44:44.170Z,4.77
2018-08-03T18:47:12.449Z,4.27
2018-08-03T18:49:40.905Z,3.73
2018-08-03T18:52:09.236Z,3.90
2018-08-03T18:54:37.563Z,4.25
2018-08-03T18:57:06.076Z,4.13
2018-08-03T18:59:34.376Z,3.60
2018-08-03T19:02:02.677Z,3.80
2018-08-03T19:04:30.988Z,3.90
2018-08-03T19:06:59.270Z,4.03
2018-08-03T19:09:27.528Z,3.97
2018-08-03T19:11:55.962Z,4.03
2018-08-03T19:14:24.258Z,4.40
2018-08-03T19:16:52.670Z,4.60
2018-08-03T19:19:20.926Z,4.43
2018-08-03T19:21:49.467Z,5.07
2018-08-03T19:24:17.674Z,4.83
2018-08-03T19:26:45.957Z,5.90
2018-08-03T19:29:14.220Z,4.93
2018-08-03T19:31:42.591Z,5.40
2018-08-03T19:34:10.885Z,6.07
2018-08-03T19:36:39.149Z,5.53
2018-08-03T19:39:09.104Z,5.67
2018-08-03T19:41:37.381Z,5.80
2018-08-03T19:44:05.916Z,5.57
2018-08-03T19:46:34.193Z,5.07
2018-08-03T19:49:02.469Z,5.20
2018-08-03T19:51:30.737Z,5.60
2018-08-03T19:53:59.050Z,7.30
2018-08-03T19:56:27.384Z,7.53
2018-08-03T19:58:55.716Z,6.33
2018-08-03T20:01:24.013Z,6.60
2018-08-03T20:03:52.292Z,6.70
2018-08-03T20:06:20.586Z,7.90
2018-08-03T20:08:48.940Z,7.63
2018-08-03T20:11:17.236Z,6.87
2018-08-03T20:13:45.625Z,7.60
2018-08-03T20:16:13.837Z,7.10
2018-08-03T20:18:42.249Z,7.30
2018-08-03T20:21:10.552Z,7.63
2018-08-03T20:23:38.917Z,7.10
2018-08-03T20:26:07.209Z,8.30
2018-08-03T20:28:35.501Z,7.93
2018-08-03T20:31:03.855Z,8.13
2018-08-03T20:33:32.149Z,9.53
2018-08-03T20:36:00.592Z,6.23
2018-08-03T20:38:28.901Z,7.50
2018-08-03T20:40:57.190Z,7.57
2018-08-03T20:43:25.519Z,8.20
2018-08-03T20:45:53.865Z,5.80
2018-08-03T20:48:22.236Z,5.40
2018-08-03T20:50:50.528Z,4.40
2018-08-03T20:53:18.784Z,3.93
2018-08-03T20:55:47.075Z,4.00
2018-08-03T20:58:15.394Z,2.90
2018-08-03T21:00:43.661Z,3.73
2018-08-03T21:03:12.025Z,4.37
2018-08-03T21:05:40.292Z,2.50
2018-08-03T21:08:08.589Z,2.90
2018-08-03T21:10:36.910Z,3.43
2018-08-03T21:13:05.221Z,2.93
2018-08-03T21:15:33.483Z,3.07
2018-08-03T21:18:01.768Z,2.40
2018-08-03T21:20:30.026Z,3.63
2018-08-03T21:22:58.305Z,4.30
2018-08-03T21:25:26.564Z,3.50
2018-08-03T21:27:54.878Z,2.63
2018-08-03T21:30:23.161Z,3.03
2018-08-03T21:32:51.464Z,2.83
2018-08-03T21:35:19.795Z,3.10
2018-08-03T21:37:53.649Z,2.73
2018-08-03T21:40:23.954Z,2.57
2018-08-03T21:42:52.208Z,2.53
2018-08-03T21:45:20.535Z,3.00
2018-08-03T21:47:48.789Z,2.90
2018-08-03T21:50:17.097Z,2.83
2018-08-03T21:52:45.429Z,2.50
2018-08-03T21:55:13.689Z,2.83
2018-08-03T21:57:41.976Z,2.83
2018-08-03T22:00:14.094Z,2.40
2018-08-03T22:02:42.382Z,2.30
2018-08-03T22:05:11.771Z,3.03
2018-08-03T22:07:40.124Z,2.47
2018-08-03T22:10:09.487Z,2.40
2018-08-03T22:12:37.737Z,2.60
2018-08-03T22:15:08.185Z,2.07
2018-08-03T22:17:36.477Z,2.33
2018-08-03T22:20:04.957Z,2.30
2018-08-03T22:22:33.224Z,2.13
2018-08-03T22:25:01.517Z,2.00
2018-08-03T22:27:29.784Z,1.77
2018-08-03T22:29:58.157Z,1.87
2018-08-03T22:32:26.434Z,1.83
2018-08-03T22:34:54.837Z,1.70
2018-08-03T22:37:23.193Z,1.77
2018-08-03T22:39:51.497Z,1.53
2018-08-03T22:42:19.796Z,2.00
2018-08-03T22:46:12.566Z,1.60
2018-08-03T22:48:41.005Z,2.47
2018-08-03T22:51:09.306Z,1.83
2018-08-03T22:53:37.602Z,1.80
2018-08-03T22:56:06.457Z,2.00
2018-08-03T22:58:35.036Z,1.80
2018-08-03T23:01:03.660Z,1.83
2018-08-03T23:03:31.880Z,1.60
2018-08-03T23:06:00.138Z,2.03
2018-08-03T23:08:28.433Z,2.10
2018-08-03T23:10:56.785Z,1.73
2018-08-03T23:13:25.081Z,1.70
2018-08-03T23:15:53.428Z,1.80
2018-08-03T23:18:21.733Z,1.93
2018-08-03T23:20:50.149Z,1.80
2018-08-03T23:23:18.459Z,1.73
2018-08-03T23:25:46.772Z,1.47
2018-08-03T23:28:15.092Z,1.73
2018-08-03T23:30:43.373Z,1.87
2018-08-03T23:33:11.662Z,1.77
2018-08-03T23:35:41.078Z,2.10
2018-08-03T23:38:09.384Z,1.33
2018-08-03T23:40:37.925Z,1.40
2018-08-03T23:43:06.312Z,1.83
2018-08-03T23:45:34.590Z,2.23
2018-08-03T23:48:02.883Z,1.50
2018-08-03T23:50:31.169Z,1.87
2018-08-03T23:53:00.473Z,1.67
2018-08-03T23:55:28.748Z,1.50
2018-08-03T23:57:58.074Z,2.03
